Terminal Aerodrome Forecast
Issued by NWS Caribou, ME

Home | Current Version | Previous Version | Text Only | Print | Product List | Glossary On
Versions: 1 2 3 4 5 6 7 8 9 10 11 12
000
FTUS41 KCAR 042324
TAFCAR
TAF
KCAR 042324Z 0500/0524 19010KT P6SM BKN120
     FM050300 23010KT P6SM -SHRA BKN050
     FM050800 28009KT P6SM SCT050
     FM051200 31012G20KT P6SM FEW030 SCT250
     FM052200 31012G20KT P6SM BKN100=

USA.gov is the U.S. government's official web portal to all federal, state and local government web resources and services.